LDSP/SPU METAR and TAF weather

Enter ICAO airport designator
Station Type Date Time Source
LDSP METAR 2019/04/20 18:00 UTC NOAA

LDSP 201800Z 02009KT CAVOK 20/M03 Q1022 NOSIG


Station Type Date Time Source
LDSP Decoded METAR 2019/04/20 18:00 UTC NOAA

Split / Resnik, Croatia (LDSP) 43-32N 016-18E 21M
Apr 20, 2019 - 02:00 PM EDT / 2019.04.20 1800 UTC
Wind: from the NNE (020 degrees) at 10 MPH (9 KT):0
Visibility: greater than 7 mile(s):0
Temperature: 68 F (20 C)
Dew Point: 26 F (-3 C)
Relative Humidity: 20%
Pressure (altimeter): 30.18 in. Hg (1022 hPa)
ob: LDSP 201800Z 02009KT CAVOK 20/M03 Q1022 NOSIG
cycle: 18

Station Type Date Time Source
LDSP TAF 2019/04/20 18:27 UTC NOAA

TAF LDSP 201725Z 2018/2118 11005KT CAVOK TX22/2112Z TN13/2104Z
TEMPO 2018/2100 04009KT
BECMG 2111/2113 23008KT
BECMG 2116/2118 VRB02KT

Example: see airport list